SVA6963 OERK-HAAB
Flight info
| Callsign | SVA6963 |
|---|---|
| Flight time | N/A |
| Altitude | 40000 |
| Route | UMASU G782 JDW G650 RASKA UG650 KONET DCT EKBOB UT114 MEKEL MEKEL1A |
| Aircraft | A333/H-SDE3GHIJ2J3J5M1RVWXY/LB2D1 |
Departure
| Time | N/A |
|---|---|
| Airport | King Khalid International Airport (OERK) |
Arrival
| Time | 2026-05-07 14:05 |
|---|---|
| Airport | Addis Ababa Bole International Airport (HAAB) |
| Time | Latitude | Longitude | Altitude | Speed | Heading |
|---|---|---|---|---|---|
| 2026-05-07 12:03 | 22.42272 | 40.28135 | 40029 ft | 400 kts | 235° |
| 2026-05-07 12:04 | 22.40748 | 40.25622 | 40027 ft | 400 kts | 235° |
| 2026-05-07 12:04 | 22.37699 | 40.20600 | 40017 ft | 399 kts | 235° |
| 2026-05-07 12:05 | 22.34667 | 40.15611 | 40017 ft | 400 kts | 235° |
| 2026-05-07 12:05 | 22.31616 | 40.10596 | 40008 ft | 399 kts | 235° |
| 2026-05-07 12:06 | 22.28563 | 40.05582 | 40002 ft | 399 kts | 234° |
| 2026-05-07 12:06 | 22.25515 | 40.00579 | 39987 ft | 399 kts | 235° |
| 2026-05-07 12:07 | 22.22464 | 39.95584 | 39963 ft | 398 kts | 235° |
| 2026-05-07 12:07 | 22.19404 | 39.90572 | 39963 ft | 401 kts | 234° |
| 2026-05-07 12:08 | 22.16522 | 39.86667 | 39959 ft | 400 kts | 225° |
| 2026-05-07 12:09 | 22.06218 | 39.80524 | 39942 ft | 408 kts | 200° |
| 2026-05-07 12:09 | 22.01624 | 39.79295 | 39934 ft | 409 kts | 198° |
| 2026-05-07 12:10 | 21.99751 | 39.78833 | 39936 ft | 409 kts | 197° |
| 2026-05-07 12:10 | 21.89602 | 39.76307 | 39933 ft | 408 kts | 198° |
| 2026-05-07 12:11 | 21.84076 | 39.74885 | 39908 ft | 408 kts | 198° |
| 2026-05-07 12:11 | 21.78553 | 39.73453 | 39884 ft | 408 kts | 198° |
| 2026-05-07 12:12 | 21.73017 | 39.72016 | 39907 ft | 410 kts | 198° |
| 2026-05-07 12:12 | 21.68913 | 39.70953 | 39888 ft | 411 kts | 198° |
| 2026-05-07 12:13 | 21.63397 | 39.69528 | 39901 ft | 411 kts | 198° |
| 2026-05-07 12:13 | 21.61518 | 39.69043 | 39905 ft | 411 kts | 198° |
| 2026-05-07 12:14 | 21.52432 | 39.66697 | 39878 ft | 412 kts | 198° |
| 2026-05-07 12:14 | 21.46854 | 39.65258 | 39871 ft | 413 kts | 198° |
| 2026-05-07 12:15 | 21.41271 | 39.63819 | 39876 ft | 413 kts | 198° |
| 2026-05-07 12:15 | 21.35719 | 39.62390 | 39878 ft | 413 kts | 198° |
| 2026-05-07 12:16 | 21.30132 | 39.60952 | 39875 ft | 413 kts | 198° |
| 2026-05-07 12:16 | 21.24524 | 39.59510 | 39884 ft | 415 kts | 198° |
| 2026-05-07 12:17 | 21.18904 | 39.58066 | 39881 ft | 415 kts | 198° |
| 2026-05-07 12:17 | 21.13293 | 39.56626 | 39874 ft | 414 kts | 198° |
| 2026-05-07 12:18 | 21.07695 | 39.55191 | 39848 ft | 413 kts | 198° |
| 2026-05-07 12:18 | 21.02093 | 39.53755 | 39862 ft | 415 kts | 198° |
| 2026-05-07 12:19 | 20.96472 | 39.52314 | 39862 ft | 416 kts | 198° |
| 2026-05-07 12:19 | 20.90849 | 39.50876 | 39849 ft | 415 kts | 198° |
| 2026-05-07 12:20 | 20.85231 | 39.49440 | 39851 ft | 415 kts | 198° |
| 2026-05-07 12:20 | 20.79600 | 39.48000 | 39836 ft | 417 kts | 198° |
| 2026-05-07 12:21 | 20.73946 | 39.46556 | 39829 ft | 418 kts | 198° |
| 2026-05-07 12:21 | 20.68289 | 39.45113 | 39829 ft | 418 kts | 198° |
| 2026-05-07 12:22 | 20.62664 | 39.43680 | 39824 ft | 418 kts | 198° |
| 2026-05-07 12:22 | 20.57006 | 39.42239 | 39818 ft | 419 kts | 197° |
| 2026-05-07 12:23 | 20.51321 | 39.40791 | 39818 ft | 420 kts | 197° |
| 2026-05-07 12:23 | 20.45628 | 39.39343 | 39823 ft | 421 kts | 197° |
| 2026-05-07 12:24 | 20.39936 | 39.37897 | 39819 ft | 421 kts | 197° |
| 2026-05-07 12:24 | 20.34242 | 39.36451 | 39813 ft | 421 kts | 197° |
| 2026-05-07 12:25 | 20.28534 | 39.35002 | 39835 ft | 422 kts | 197° |
| 2026-05-07 12:25 | 20.22827 | 39.33556 | 39821 ft | 421 kts | 197° |
| 2026-05-07 12:26 | 20.17134 | 39.32114 | 39820 ft | 420 kts | 197° |
| 2026-05-07 12:26 | 20.11450 | 39.30674 | 39805 ft | 420 kts | 197° |
| 2026-05-07 12:27 | 20.05736 | 39.29227 | 39825 ft | 423 kts | 197° |
| 2026-05-07 12:27 | 20.00045 | 39.27788 | 39824 ft | 423 kts | 197° |
| 2026-05-07 12:28 | 19.94313 | 39.26341 | 39825 ft | 423 kts | 197° |
| 2026-05-07 12:28 | 19.88578 | 39.24894 | 39827 ft | 423 kts | 197° |
| 2026-05-07 12:29 | 19.82837 | 39.23445 | 39824 ft | 425 kts | 197° |
| 2026-05-07 12:29 | 19.77068 | 39.21990 | 39823 ft | 427 kts | 197° |
| 2026-05-07 12:30 | 19.71278 | 39.20532 | 39827 ft | 427 kts | 197° |
| 2026-05-07 12:30 | 19.65498 | 39.19077 | 39827 ft | 427 kts | 197° |
| 2026-05-07 12:31 | 19.59717 | 39.17623 | 39826 ft | 427 kts | 197° |
| 2026-05-07 12:31 | 19.53930 | 39.16168 | 39821 ft | 427 kts | 197° |
| 2026-05-07 12:32 | 19.48144 | 39.14715 | 39824 ft | 427 kts | 197° |
| 2026-05-07 12:32 | 19.42359 | 39.13262 | 39823 ft | 427 kts | 197° |
| 2026-05-07 12:33 | 19.33681 | 39.11086 | 39830 ft | 428 kts | 197° |
| 2026-05-07 12:33 | 19.27879 | 39.09631 | 39831 ft | 429 kts | 197° |
| 2026-05-07 12:34 | 19.22113 | 39.08188 | 39829 ft | 429 kts | 197° |
| 2026-05-07 12:34 | 19.16303 | 39.06734 | 39827 ft | 429 kts | 197° |
| 2026-05-07 12:35 | 19.10382 | 39.05725 | 39827 ft | 434 kts | 189° |
| 2026-05-07 12:35 | 19.04337 | 39.05290 | 39826 ft | 436 kts | 188° |
| 2026-05-07 12:36 | 19.01376 | 39.05733 | 39419 ft | 452 kts | 157° |
| 2026-05-07 12:36 | 18.98584 | 39.07177 | 39236 ft | 435 kts | 167° |
| 2026-05-07 12:36 | 18.96649 | 39.07673 | 39281 ft | 427 kts | 179° |
| 2026-05-07 12:36 | 18.92779 | 39.07401 | 39557 ft | 413 kts | 199° |
| 2026-05-07 12:37 | 18.90050 | 39.06483 | 39767 ft | 411 kts | 202° |
| 2026-05-07 12:37 | 18.87320 | 39.05526 | 39824 ft | 416 kts | 200° |
| 2026-05-07 12:37 | 18.81565 | 39.04191 | 39825 ft | 431 kts | 192° |
| 2026-05-07 12:38 | 18.75520 | 39.03602 | 39823 ft | 439 kts | 188° |
| 2026-05-07 12:38 | 18.69418 | 39.03309 | 39824 ft | 439 kts | 187° |
| 2026-05-07 12:39 | 18.64339 | 39.03084 | 39820 ft | 439 kts | 187° |
| 2026-05-07 12:39 | 18.57211 | 39.02722 | 39822 ft | 439 kts | 187° |
| 2026-05-07 12:40 | 18.51101 | 39.02386 | 39823 ft | 440 kts | 187° |
| 2026-05-07 12:40 | 18.46028 | 39.02103 | 39817 ft | 440 kts | 187° |
| 2026-05-07 12:41 | 18.39918 | 39.01763 | 39822 ft | 440 kts | 187° |
| 2026-05-07 12:41 | 18.33800 | 39.01425 | 39802 ft | 440 kts | 187° |
| 2026-05-07 12:42 | 18.27698 | 39.01087 | 39821 ft | 441 kts | 187° |
| 2026-05-07 12:42 | 18.21558 | 39.00749 | 39821 ft | 442 kts | 187° |
| 2026-05-07 12:43 | 18.15424 | 39.00426 | 39820 ft | 442 kts | 186° |
| 2026-05-07 12:43 | 18.09270 | 39.00190 | 39822 ft | 442 kts | 186° |
| 2026-05-07 12:44 | 18.03117 | 38.99983 | 39820 ft | 443 kts | 186° |
| 2026-05-07 12:44 | 17.96958 | 38.99770 | 39821 ft | 443 kts | 186° |
| 2026-05-07 12:45 | 17.90787 | 38.99550 | 39820 ft | 443 kts | 186° |
| 2026-05-07 12:45 | 17.84623 | 38.99328 | 39820 ft | 443 kts | 186° |
| 2026-05-07 12:46 | 17.78457 | 38.99106 | 39818 ft | 443 kts | 186° |
| 2026-05-07 12:46 | 17.72287 | 38.98884 | 39821 ft | 443 kts | 186° |
| 2026-05-07 12:47 | 17.66123 | 38.98663 | 39821 ft | 443 kts | 186° |
| 2026-05-07 12:47 | 17.59992 | 38.98443 | 39820 ft | 443 kts | 186° |
| 2026-05-07 12:48 | 17.53833 | 38.98222 | 39808 ft | 443 kts | 186° |
| 2026-05-07 12:48 | 17.47661 | 38.98000 | 39821 ft | 444 kts | 186° |
| 2026-05-07 12:49 | 17.41493 | 38.97779 | 39821 ft | 444 kts | 186° |
| 2026-05-07 12:49 | 17.35327 | 38.97553 | 39821 ft | 444 kts | 186° |
| 2026-05-07 12:50 | 17.29148 | 38.97326 | 39822 ft | 444 kts | 186° |
| 2026-05-07 12:50 | 17.22980 | 38.97099 | 39824 ft | 444 kts | 185° |
| 2026-05-07 12:51 | 17.16794 | 38.96873 | 39824 ft | 445 kts | 185° |
| 2026-05-07 12:51 | 17.10604 | 38.96647 | 39823 ft | 445 kts | 185° |
| 2026-05-07 12:52 | 17.04412 | 38.96421 | 39826 ft | 445 kts | 185° |
| 2026-05-07 12:52 | 16.98226 | 38.96195 | 39826 ft | 445 kts | 185° |
| 2026-05-07 12:53 | 16.92036 | 38.95969 | 39827 ft | 445 kts | 185° |
| 2026-05-07 12:53 | 16.85843 | 38.95743 | 39827 ft | 445 kts | 185° |
| 2026-05-07 12:54 | 16.79658 | 38.95518 | 39829 ft | 445 kts | 185° |
| 2026-05-07 12:54 | 16.73473 | 38.95293 | 39827 ft | 445 kts | 185° |
| 2026-05-07 12:55 | 16.67264 | 38.95065 | 39832 ft | 448 kts | 185° |
| 2026-05-07 12:55 | 16.61025 | 38.94838 | 39834 ft | 449 kts | 185° |
| 2026-05-07 12:56 | 16.54780 | 38.94613 | 39834 ft | 449 kts | 185° |
| 2026-05-07 12:56 | 16.48535 | 38.94387 | 39834 ft | 449 kts | 185° |
| 2026-05-07 12:57 | 16.42281 | 38.94161 | 39834 ft | 450 kts | 185° |
| 2026-05-07 12:57 | 16.36022 | 38.93934 | 39840 ft | 451 kts | 185° |
| 2026-05-07 12:58 | 16.29753 | 38.93707 | 39856 ft | 451 kts | 185° |
| 2026-05-07 12:58 | 16.23477 | 38.93481 | 39857 ft | 451 kts | 185° |
| 2026-05-07 12:59 | 16.17250 | 38.93255 | 39860 ft | 451 kts | 185° |
| 2026-05-07 12:59 | 16.10969 | 38.93028 | 39865 ft | 452 kts | 185° |
| 2026-05-07 13:00 | 16.04686 | 38.92802 | 39878 ft | 452 kts | 185° |
| 2026-05-07 13:00 | 15.98399 | 38.92576 | 39878 ft | 452 kts | 185° |
| 2026-05-07 13:01 | 15.92113 | 38.92349 | 39879 ft | 452 kts | 185° |
| 2026-05-07 13:01 | 15.85810 | 38.92123 | 39902 ft | 453 kts | 185° |
| 2026-05-07 13:02 | 15.79508 | 38.91895 | 39898 ft | 454 kts | 185° |
| 2026-05-07 13:02 | 15.73235 | 38.91669 | 39911 ft | 454 kts | 185° |
| 2026-05-07 13:03 | 15.66882 | 38.91442 | 39912 ft | 454 kts | 185° |
| 2026-05-07 13:03 | 15.60604 | 38.91216 | 39923 ft | 455 kts | 185° |
| 2026-05-07 13:04 | 15.54268 | 38.90989 | 39924 ft | 456 kts | 185° |
| 2026-05-07 13:04 | 15.47928 | 38.90759 | 39932 ft | 456 kts | 185° |
| 2026-05-07 13:05 | 15.41580 | 38.90534 | 39942 ft | 456 kts | 185° |
| 2026-05-07 13:05 | 15.35242 | 38.90309 | 39939 ft | 456 kts | 185° |
| 2026-05-07 13:06 | 15.28888 | 38.90085 | 39948 ft | 457 kts | 184° |
| 2026-05-07 13:06 | 15.22516 | 38.90008 | 39948 ft | 458 kts | 183° |
| 2026-05-07 13:07 | 15.16140 | 38.90025 | 39945 ft | 458 kts | 182° |
| 2026-05-07 13:07 | 15.09764 | 38.90041 | 39923 ft | 458 kts | 183° |
| 2026-05-07 13:08 | 15.03391 | 38.90043 | 39930 ft | 458 kts | 183° |
| 2026-05-07 13:08 | 14.97063 | 38.90037 | 39914 ft | 458 kts | 183° |
| 2026-05-07 13:09 | 14.90692 | 38.90028 | 39917 ft | 458 kts | 183° |
| 2026-05-07 13:09 | 14.84321 | 38.90021 | 39895 ft | 458 kts | 183° |
| 2026-05-07 13:10 | 14.77952 | 38.90014 | 39895 ft | 458 kts | 183° |
| 2026-05-07 13:10 | 14.71566 | 38.90006 | 39881 ft | 459 kts | 183° |
| 2026-05-07 13:11 | 14.65173 | 38.89999 | 39874 ft | 459 kts | 183° |
| 2026-05-07 13:11 | 14.58784 | 38.89993 | 39883 ft | 459 kts | 183° |
| 2026-05-07 13:12 | 14.52387 | 38.89986 | 39878 ft | 459 kts | 183° |
| 2026-05-07 13:12 | 14.45986 | 38.90427 | 39893 ft | 462 kts | 178° |
| 2026-05-07 13:13 | 14.39580 | 38.91105 | 39875 ft | 463 kts | 177° |
| 2026-05-07 13:13 | 14.33171 | 38.91827 | 39890 ft | 463 kts | 177° |
| 2026-05-07 13:14 | 14.26771 | 38.92548 | 39888 ft | 463 kts | 177° |
| 2026-05-07 13:14 | 14.20363 | 38.93260 | 39884 ft | 463 kts | 177° |
| 2026-05-07 13:15 | 14.13958 | 38.93968 | 39904 ft | 463 kts | 177° |
| 2026-05-07 13:15 | 14.07594 | 38.94669 | 39909 ft | 463 kts | 177° |
| 2026-05-07 13:16 | 14.01188 | 38.95377 | 39905 ft | 463 kts | 177° |
| 2026-05-07 13:16 | 13.94776 | 38.96084 | 39909 ft | 464 kts | 177° |
| 2026-05-07 13:17 | 13.88342 | 38.96793 | 39901 ft | 466 kts | 177° |
| 2026-05-07 13:17 | 13.81894 | 38.97504 | 39907 ft | 466 kts | 177° |
| 2026-05-07 13:18 | 13.75442 | 38.98215 | 39893 ft | 466 kts | 177° |
| 2026-05-07 13:18 | 13.68996 | 38.98924 | 39887 ft | 466 kts | 177° |
| 2026-05-07 13:19 | 13.62546 | 38.99633 | 39881 ft | 467 kts | 177° |
| 2026-05-07 13:19 | 13.56088 | 39.00343 | 39880 ft | 467 kts | 177° |
| 2026-05-07 13:20 | 13.49624 | 39.01054 | 39865 ft | 467 kts | 176° |
| 2026-05-07 13:20 | 13.44256 | 39.01644 | 39860 ft | 467 kts | 177° |
| 2026-05-07 13:21 | 13.31121 | 39.03085 | 39866 ft | 466 kts | 177° |
| 2026-05-07 13:22 | 13.24672 | 39.03793 | 39851 ft | 466 kts | 177° |
| 2026-05-07 13:22 | 13.18225 | 39.04500 | 39853 ft | 466 kts | 176° |
| 2026-05-07 13:23 | 13.11778 | 39.05207 | 39841 ft | 466 kts | 177° |
| 2026-05-07 13:23 | 13.05326 | 39.05913 | 39850 ft | 467 kts | 176° |
| 2026-05-07 13:24 | 12.98867 | 39.06620 | 39842 ft | 467 kts | 176° |
| 2026-05-07 13:24 | 12.92407 | 39.07327 | 39840 ft | 467 kts | 176° |
| 2026-05-07 13:25 | 12.85937 | 39.08035 | 39850 ft | 467 kts | 176° |
| 2026-05-07 13:25 | 12.79521 | 39.08736 | 39863 ft | 467 kts | 177° |
| 2026-05-07 13:26 | 12.73645 | 39.09378 | 39852 ft | 467 kts | 177° |
| 2026-05-07 13:26 | 12.67154 | 39.10088 | 39879 ft | 466 kts | 177° |
| 2026-05-07 13:27 | 12.60737 | 39.10787 | 39869 ft | 466 kts | 176° |
| 2026-05-07 13:27 | 12.54282 | 39.11490 | 39905 ft | 467 kts | 177° |
| 2026-05-07 13:28 | 12.47816 | 39.12195 | 39903 ft | 467 kts | 177° |
| 2026-05-07 13:28 | 12.41352 | 39.12899 | 39931 ft | 467 kts | 176° |
| 2026-05-07 13:29 | 12.34886 | 39.13603 | 39953 ft | 467 kts | 176° |
| 2026-05-07 13:29 | 12.28417 | 39.14307 | 39956 ft | 467 kts | 177° |
| 2026-05-07 13:30 | 12.21969 | 39.15008 | 39963 ft | 467 kts | 177° |
| 2026-05-07 13:30 | 12.15503 | 39.15710 | 39971 ft | 468 kts | 176° |
| 2026-05-07 13:31 | 12.09019 | 39.16414 | 39973 ft | 468 kts | 177° |
| 2026-05-07 13:31 | 12.02540 | 39.17117 | 39975 ft | 468 kts | 177° |
| 2026-05-07 13:32 | 11.96065 | 39.17494 | 39982 ft | 464 kts | 186° |
| 2026-05-07 13:32 | 11.89752 | 39.16380 | 39984 ft | 460 kts | 195° |
| 2026-05-07 13:33 | 11.83528 | 39.14803 | 39984 ft | 461 kts | 196° |
| 2026-05-07 13:33 | 11.77297 | 39.13201 | 39976 ft | 461 kts | 197° |
| 2026-05-07 13:34 | 11.67953 | 39.10801 | 39947 ft | 462 kts | 197° |
| 2026-05-07 13:35 | 11.61735 | 39.09205 | 39948 ft | 460 kts | 197° |
| 2026-05-07 13:35 | 11.55571 | 39.07624 | 39944 ft | 459 kts | 198° |
| 2026-05-07 13:36 | 11.49341 | 39.06026 | 39944 ft | 459 kts | 197° |
| 2026-05-07 13:36 | 11.43140 | 39.04438 | 39943 ft | 459 kts | 197° |
| 2026-05-07 13:37 | 11.36939 | 39.02849 | 39918 ft | 460 kts | 196° |
| 2026-05-07 13:37 | 11.30740 | 39.01263 | 39918 ft | 459 kts | 196° |
| 2026-05-07 13:38 | 11.24579 | 38.99685 | 39927 ft | 460 kts | 198° |
| 2026-05-07 13:38 | 11.18381 | 38.98100 | 39929 ft | 458 kts | 196° |
| 2026-05-07 13:39 | 11.12190 | 38.96517 | 39945 ft | 460 kts | 196° |
| 2026-05-07 13:39 | 11.05980 | 38.94931 | 39943 ft | 459 kts | 196° |
| 2026-05-07 13:40 | 10.99776 | 38.93346 | 39916 ft | 460 kts | 196° |
| 2026-05-07 13:40 | 10.93579 | 38.91763 | 39912 ft | 459 kts | 197° |
| 2026-05-07 13:41 | 10.87372 | 38.90179 | 39916 ft | 460 kts | 197° |
| 2026-05-07 13:41 | 10.81162 | 38.88595 | 39910 ft | 461 kts | 196° |
| 2026-05-07 13:42 | 10.74914 | 38.87001 | 39896 ft | 464 kts | 196° |
| 2026-05-07 13:42 | 10.68646 | 38.85404 | 39875 ft | 465 kts | 196° |
| 2026-05-07 13:43 | 10.62380 | 38.83808 | 39853 ft | 464 kts | 196° |
| 2026-05-07 13:43 | 10.56115 | 38.82212 | 39820 ft | 464 kts | 196° |
| 2026-05-07 13:44 | 10.49850 | 38.80617 | 39823 ft | 464 kts | 196° |
| 2026-05-07 13:44 | 10.43582 | 38.79022 | 39802 ft | 465 kts | 195° |
| 2026-05-07 13:45 | 10.37304 | 38.77426 | 39806 ft | 465 kts | 196° |
| 2026-05-07 13:45 | 10.31040 | 38.75833 | 39659 ft | 466 kts | 195° |
| 2026-05-07 13:45 | 10.27902 | 38.75036 | 39223 ft | 464 kts | 196° |
| 2026-05-07 13:46 | 10.24803 | 38.74249 | 38533 ft | 467 kts | 196° |
| 2026-05-07 13:46 | 10.21636 | 38.73444 | 37759 ft | 470 kts | 196° |
| 2026-05-07 13:46 | 10.18432 | 38.72630 | 37145 ft | 468 kts | 197° |
| 2026-05-07 13:46 | 10.15278 | 38.71829 | 36641 ft | 465 kts | 195° |
| 2026-05-07 13:47 | 10.12139 | 38.71032 | 36120 ft | 464 kts | 195° |
| 2026-05-07 13:47 | 10.09016 | 38.70240 | 35582 ft | 463 kts | 196° |
| 2026-05-07 13:47 | 10.05889 | 38.69446 | 35024 ft | 462 kts | 196° |
| 2026-05-07 13:47 | 10.02764 | 38.68653 | 34454 ft | 463 kts | 195° |
| 2026-05-07 13:48 | 9.99642 | 38.67860 | 33782 ft | 465 kts | 195° |
| 2026-05-07 13:48 | 9.96477 | 38.67057 | 32829 ft | 471 kts | 195° |
| 2026-05-07 13:48 | 9.93281 | 38.66247 | 31935 ft | 475 kts | 194° |
| 2026-05-07 13:48 | 9.90056 | 38.65429 | 31039 ft | 480 kts | 194° |
| 2026-05-07 13:49 | 9.86804 | 38.64605 | 30079 ft | 485 kts | 194° |
| 2026-05-07 13:49 | 9.83527 | 38.63774 | 29328 ft | 484 kts | 194° |
| 2026-05-07 13:49 | 9.80288 | 38.62953 | 28722 ft | 478 kts | 194° |
| 2026-05-07 13:49 | 9.77068 | 38.62138 | 28087 ft | 473 kts | 194° |
| 2026-05-07 13:50 | 9.74965 | 38.61605 | 27650 ft | 470 kts | 194° |
| 2026-05-07 13:51 | 9.58923 | 38.57543 | 24385 ft | 455 kts | 193° |
| 2026-05-07 13:51 | 9.55854 | 38.56766 | 23762 ft | 453 kts | 193° |
| 2026-05-07 13:51 | 9.52821 | 38.55999 | 23027 ft | 450 kts | 192° |
| 2026-05-07 13:52 | 9.49777 | 38.55229 | 22335 ft | 446 kts | 192° |
| 2026-05-07 13:52 | 9.46820 | 38.54481 | 21711 ft | 442 kts | 193° |
| 2026-05-07 13:52 | 9.43810 | 38.53721 | 21058 ft | 438 kts | 193° |
| 2026-05-07 13:52 | 9.40905 | 38.52987 | 20433 ft | 435 kts | 193° |
| 2026-05-07 13:53 | 9.37978 | 38.52247 | 19795 ft | 433 kts | 193° |
| 2026-05-07 13:53 | 9.35059 | 38.51511 | 19173 ft | 430 kts | 193° |
| 2026-05-07 13:53 | 9.32169 | 38.50781 | 18547 ft | 427 kts | 193° |
| 2026-05-07 13:53 | 9.29296 | 38.50054 | 17875 ft | 424 kts | 193° |
| 2026-05-07 13:54 | 9.26453 | 38.49335 | 17202 ft | 420 kts | 193° |
| 2026-05-07 13:54 | 9.23655 | 38.48627 | 16602 ft | 415 kts | 192° |
| 2026-05-07 13:54 | 9.20854 | 38.47920 | 16041 ft | 410 kts | 193° |
| 2026-05-07 13:54 | 9.18145 | 38.47235 | 15900 ft | 392 kts | 192° |
| 2026-05-07 13:55 | 9.15564 | 38.46581 | 15813 ft | 375 kts | 192° |
| 2026-05-07 13:55 | 9.13080 | 38.45953 | 15667 ft | 361 kts | 192° |
| 2026-05-07 13:55 | 9.10684 | 38.45349 | 15494 ft | 349 kts | 192° |
| 2026-05-07 13:55 | 9.08372 | 38.44765 | 15350 ft | 338 kts | 192° |
| 2026-05-07 13:56 | 9.06147 | 38.44203 | 15202 ft | 327 kts | 192° |
| 2026-05-07 13:56 | 9.03963 | 38.43652 | 15062 ft | 317 kts | 191° |
| 2026-05-07 13:56 | 9.01851 | 38.43119 | 14889 ft | 308 kts | 191° |
| 2026-05-07 13:56 | 8.99796 | 38.42601 | 14730 ft | 300 kts | 191° |
| 2026-05-07 13:57 | 8.97762 | 38.42089 | 14357 ft | 301 kts | 191° |
| 2026-05-07 13:57 | 8.95724 | 38.41710 | 14086 ft | 296 kts | 180° |
| 2026-05-07 13:57 | 8.93685 | 38.41769 | 13793 ft | 290 kts | 169° |
| 2026-05-07 13:57 | 8.91752 | 38.42227 | 13357 ft | 284 kts | 148° |
| 2026-05-07 13:58 | 8.90345 | 38.43527 | 13020 ft | 270 kts | 115° |
| 2026-05-07 13:58 | 8.89826 | 38.45288 | 12735 ft | 259 kts | 90° |
| 2026-05-07 13:58 | 8.90003 | 38.47055 | 12517 ft | 246 kts | 78° |
| 2026-05-07 13:58 | 8.90339 | 38.48710 | 12387 ft | 234 kts | 77° |
| 2026-05-07 13:59 | 8.90683 | 38.50275 | 12251 ft | 223 kts | 76° |
| 2026-05-07 13:59 | 8.91010 | 38.51754 | 12087 ft | 210 kts | 76° |
| 2026-05-07 13:59 | 8.91326 | 38.53193 | 11737 ft | 209 kts | 76° |
| 2026-05-07 13:59 | 8.91634 | 38.54598 | 11353 ft | 210 kts | 77° |
| 2026-05-07 14:00 | 8.91954 | 38.56067 | 10950 ft | 211 kts | 77° |
| 2026-05-07 14:00 | 8.92266 | 38.57512 | 10511 ft | 210 kts | 77° |
| 2026-05-07 14:00 | 8.92579 | 38.58956 | 10193 ft | 210 kts | 77° |
| 2026-05-07 14:00 | 8.92886 | 38.60364 | 9942 ft | 205 kts | 78° |
| 2026-05-07 14:01 | 8.93194 | 38.61775 | 9699 ft | 206 kts | 78° |
| 2026-05-07 14:01 | 8.93500 | 38.63198 | 9507 ft | 206 kts | 77° |
| 2026-05-07 14:01 | 8.93799 | 38.64594 | 9292 ft | 201 kts | 78° |
| 2026-05-07 14:01 | 8.94096 | 38.65977 | 9136 ft | 203 kts | 78° |
| 2026-05-07 14:02 | 8.94397 | 38.67378 | 9119 ft | 204 kts | 78° |
| 2026-05-07 14:02 | 8.94694 | 38.68758 | 9129 ft | 193 kts | 78° |
| 2026-05-07 14:02 | 8.94967 | 38.70020 | 9141 ft | 172 kts | 78° |
| 2026-05-07 14:02 | 8.95206 | 38.71117 | 9147 ft | 151 kts | 77° |
| 2026-05-07 14:03 | 8.95466 | 38.72119 | 9148 ft | 145 kts | 72° |
| 2026-05-07 14:03 | 8.95827 | 38.73091 | 8998 ft | 152 kts | 70° |
| 2026-05-07 14:03 | 8.96180 | 38.74093 | 8720 ft | 149 kts | 75° |
| 2026-05-07 14:03 | 8.96463 | 38.75093 | 8424 ft | 146 kts | 75° |
| 2026-05-07 14:04 | 8.96738 | 38.76079 | 8148 ft | 149 kts | 73° |
| 2026-05-07 14:04 | 8.97067 | 38.77087 | 7963 ft | 152 kts | 74° |
| 2026-05-07 14:04 | 8.97357 | 38.78137 | 7715 ft | 157 kts | 73° |
| 2026-05-07 14:04 | 8.97673 | 38.79176 | 7627 ft | 147 kts | 75° |
| 2026-05-07 14:05 | 8.97925 | 38.80045 | 7626 ft | 103 kts | 73° |
| 2026-05-07 14:05 | 8.98073 | 38.80549 | 7625 ft | 49 kts | 74° |
| 2026-05-07 14:05 | 8.98144 | 38.80796 | 7624 ft | 32 kts | 73° |
| 2026-05-07 14:05 | 8.98190 | 38.80953 | 7624 ft | 20 kts | 73° |
| 2026-05-07 14:06 | 8.98255 | 38.81006 | 7625 ft | 8 kts | 348° |
| 2026-05-07 14:06 | 8.98323 | 38.80976 | 7625 ft | 11 kts | 312° |
| 2026-05-07 14:06 | 8.98329 | 38.80915 | 7625 ft | 13 kts | 257° |
| 2026-05-07 14:06 | 8.98291 | 38.80788 | 7624 ft | 21 kts | 253° |